Black River (Missouri), Leeper (07062500)

StateMissouriLatestGood (1140 cfs)
RiverBlack RiverRatingObservedEstimated
Updated2021-02-27 15:30 (1 hour ago)Flood - The river is flooding. Obstacles can be treacherous or deadly. The river should be avoided at this stage for casual trips and definitely for the inexperienced. Trips should be attempted only with protective gear and equipment.Flood(none)3475
Discharge1140 cfs (median: 810 cfs)High - The river is high and potentially dangerous, especially for the young and / or inexperienced. Normal stream obstacles are sometimes difficult to navigate. Extended distances can be attempted, but canoe travel may not be advisable.High(none)1150
Height4.05 feetGood - Conditions are ideal for a canoe or kayak. Boats typically will drag on fewer than one-quarter of riffles, if at all, and portages are unnecessary or rare. Normal float lengths can be attempted without a problem.Good(none)713
TrendFalling (falling over 24 hours)Low - River is low but can still be floated. Some riffles are okay but most come with significant dragging and might need a portage. Float lengths should be reduced to accommodate low flow, dragging, and portages.Low(none)418
USGSExternal icon USGS Site (External icon Google Maps)Poor - River is too low to float comfortably. Most or all riffles will drag or must be portaged and some obstacles (such as slick shelf rock) cause undue problems. Avoid the river at this stage for casual paddling trips.Poor(none)219

Trending Data

Plot Image

Trips for Black River (Missouri), Leeper (07062500)

DateStartEndDistanceConditionDischargeHeightFishingDetails

A total of 0 rows are displayed.

Condition Descriptions

Fishing Conditions

Fish Species

Notes

Classic Trip List

The classic River Trips application is still available for use. It is updated with the new system using a data retrofit. It is no longer maintained. The original River Trips application is no longer updated (as of 1 Dec 2016) but can be checked for errors or for the condition of the data before it was converted to the new system.

Gauge Data Table

ObservationHeightDischargeMaximum
Discharge
Minimum
Discharge
Mean
Discharge
P05P10P20P25P50
(Median)
P75P80P90P95
2021-02-27 15:30 4.05 1140 4740 (1951) 240 (1963) 1410 338 395 490 543 810 2220 3050 3600 3840
2021-02-27 14:30 4.06 1150 4740 (1951) 240 (1963) 1410 338 395 490 543 810 2220 3050 3600 3840
2021-02-27 13:30 4.06 1150 4740 (1951) 240 (1963) 1410 338 395 490 543 810 2220 3050 3600 3840
2021-02-27 12:30 4.05 1140 4740 (1951) 240 (1963) 1410 338 395 490 543 810 2220 3050 3600 3840
2021-02-27 11:30 4.07 1150 4740 (1951) 240 (1963) 1410 338 395 490 543 810 2220 3050 3600 3840
2021-02-27 10:30 4.06 1150 4740 (1951) 240 (1963) 1410 338 395 490 543 810 2220 3050 3600 3840
2021-02-27 09:30 4.07 1150 4740 (1951) 240 (1963) 1410 338 395 490 543 810 2220 3050 3600 3840
2021-02-27 08:30 4.07 1150 4740 (1951) 240 (1963) 1410 338 395 490 543 810 2220 3050 3600 3840
2021-02-27 07:30 4.07 1150 4740 (1951) 240 (1963) 1410 338 395 490 543 810 2220 3050 3600 3840
2021-02-27 06:30 4.08 1160 4740 (1951) 240 (1963) 1410 338 395 490 543 810 2220 3050 3600 3840
2021-02-27 05:30 4.10 1170 4740 (1951) 240 (1963) 1410 338 395 490 543 810 2220 3050 3600 3840
2021-02-27 04:30 4.09 1170 4740 (1951) 240 (1963) 1410 338 395 490 543 810 2220 3050 3600 3840
2021-02-27 03:30 4.12 1180 4740 (1951) 240 (1963) 1410 338 395 490 543 810 2220 3050 3600 3840
2021-02-27 02:30 4.14 1200 4740 (1951) 240 (1963) 1410 338 395 490 543 810 2220 3050 3600 3840
2021-02-27 01:30 4.17 1210 4740 (1951) 240 (1963) 1410 338 395 490 543 810 2220 3050 3600 3840
2021-02-27 00:30 4.21 1240 4740 (1951) 240 (1963) 1410 338 395 490 543 810 2220 3050 3600 3840
2021-02-26 23:30 4.25 1260 4440 (1949) 223 (1963) 1340 342 428 498 549 833 1810 2350 3510 3820
2021-02-26 22:30 4.33 1310 4440 (1949) 223 (1963) 1340 342 428 498 549 833 1810 2350 3510 3820
2021-02-26 21:30 4.42 1370 4440 (1949) 223 (1963) 1340 342 428 498 549 833 1810 2350 3510 3820
2021-02-26 20:30 4.57 1470 4440 (1949) 223 (1963) 1340 342 428 498 549 833 1810 2350 3510 3820
2021-02-26 19:30 4.75 1590 4440 (1949) 223 (1963) 1340 342 428 498 549 833 1810 2350 3510 3820
2021-02-26 18:30 4.88 1680 4440 (1949) 223 (1963) 1340 342 428 498 549 833 1810 2350 3510 3820
2021-02-26 17:30 4.91 1700 4440 (1949) 223 (1963) 1340 342 428 498 549 833 1810 2350 3510 3820
2021-02-26 16:30 4.90 1690 4440 (1949) 223 (1963) 1340 342 428 498 549 833 1810 2350 3510 3820
2021-02-26 15:30 4.86 1660 4440 (1949) 223 (1963) 1340 342 428 498 549 833 1810 2350 3510 3820
2021-02-26 14:30 4.81 1630 4440 (1949) 223 (1963) 1340 342 428 498 549 833 1810 2350 3510 3820
2021-02-26 13:30 4.73 1570 4440 (1949) 223 (1963) 1340 342 428 498 549 833 1810 2350 3510 3820
2021-02-26 12:30 4.62 1500 4440 (1949) 223 (1963) 1340 342 428 498 549 833 1810 2350 3510 3820
2021-02-26 11:30 4.48 1410 4440 (1949) 223 (1963) 1340 342 428 498 549 833 1810 2350 3510 3820
2021-02-26 10:30 4.34 1320 4440 (1949) 223 (1963) 1340 342 428 498 549 833 1810 2350 3510 3820
2021-02-26 09:30 4.25 1260 4440 (1949) 223 (1963) 1340 342 428 498 549 833 1810 2350 3510 3820
2021-02-26 08:30 4.25 1260 4440 (1949) 223 (1963) 1340 342 428 498 549 833 1810 2350 3510 3820
2021-02-26 07:30 4.26 1270 4440 (1949) 223 (1963) 1340 342 428 498 549 833 1810 2350 3510 3820
2021-02-26 06:30 4.25 1260 4440 (1949) 223 (1963) 1340 342 428 498 549 833 1810 2350 3510 3820
2021-02-26 05:30 4.26 1270 4440 (1949) 223 (1963) 1340 342 428 498 549 833 1810 2350 3510 3820
2021-02-26 04:30 4.27 1280 4440 (1949) 223 (1963) 1340 342 428 498 549 833 1810 2350 3510 3820
2021-02-26 03:30 4.27 1280 4440 (1949) 223 (1963) 1340 342 428 498 549 833 1810 2350 3510 3820
2021-02-26 02:30 4.28 1280 4440 (1949) 223 (1963) 1340 342 428 498 549 833 1810 2350 3510 3820
2021-02-26 01:30 4.28 1280 4440 (1949) 223 (1963) 1340 342 428 498 549 833 1810 2350 3510 3820
2021-02-26 00:30 4.28 1280 4440 (1949) 223 (1963) 1340 342 428 498 549 833 1810 2350 3510 3820
2021-02-25 23:30 4.33 1310 4820 (1950) 234 (1963) 1240 363 435 512 547 892 1160 1620 3570 4060
2021-02-25 22:30 4.38 1340 4820 (1950) 234 (1963) 1240 363 435 512 547 892 1160 1620 3570 4060
2021-02-25 21:30 4.44 1380 4820 (1950) 234 (1963) 1240 363 435 512 547 892 1160 1620 3570 4060
2021-02-25 20:30 4.52 1430 4820 (1950) 234 (1963) 1240 363 435 512 547 892 1160 1620 3570 4060
2021-02-25 19:30 4.62 1500 4820 (1950) 234 (1963) 1240 363 435 512 547 892 1160 1620 3570 4060
2021-02-25 18:30 4.75 1590 4820 (1950) 234 (1963) 1240 363 435 512 547 892 1160 1620 3570 4060
2021-02-25 17:30 4.82 1630 4820 (1950) 234 (1963) 1240 363 435 512 547 892 1160 1620 3570 4060
2021-02-25 16:30 4.81 1630 4820 (1950) 234 (1963) 1240 363 435 512 547 892 1160 1620 3570 4060
2021-02-25 15:30 4.76 1590 4820 (1950) 234 (1963) 1240 363 435 512 547 892 1160 1620 3570 4060
2021-02-25 14:30 4.67 1530 4820 (1950) 234 (1963) 1240 363 435 512 547 892 1160 1620 3570 4060
2021-02-25 13:30 4.55 1450 4820 (1950) 234 (1963) 1240 363 435 512 547 892 1160 1620 3570 4060
2021-02-25 12:30 4.36 1330 4820 (1950) 234 (1963) 1240 363 435 512 547 892 1160 1620 3570 4060
2021-02-25 11:30 4.14 1200 4820 (1950) 234 (1963) 1240 363 435 512 547 892 1160 1620 3570 4060
2021-02-25 10:30 3.91 1060 4820 (1950) 234 (1963) 1240 363 435 512 547 892 1160 1620 3570 4060
2021-02-25 09:30 3.79 991 4820 (1950) 234 (1963) 1240 363 435 512 547 892 1160 1620 3570 4060
2021-02-25 08:30 3.80 996 4820 (1950) 234 (1963) 1240 363 435 512 547 892 1160 1620 3570 4060
2021-02-25 07:30 3.79 991 4820 (1950) 234 (1963) 1240 363 435 512 547 892 1160 1620 3570 4060
2021-02-25 06:30 3.80 996 4820 (1950) 234 (1963) 1240 363 435 512 547 892 1160 1620 3570 4060
2021-02-25 05:30 3.78 985 4820 (1950) 234 (1963) 1240 363 435 512 547 892 1160 1620 3570 4060
2021-02-25 04:30 3.80 996 4820 (1950) 234 (1963) 1240 363 435 512 547 892 1160 1620 3570 4060
2021-02-25 03:30 3.79 991 4820 (1950) 234 (1963) 1240 363 435 512 547 892 1160 1620 3570 4060
2021-02-25 02:30 3.81 1000 4820 (1950) 234 (1963) 1240 363 435 512 547 892 1160 1620 3570 4060
2021-02-25 01:30 3.79 991 4820 (1950) 234 (1963) 1240 363 435 512 547 892 1160 1620 3570 4060
2021-02-25 00:30 3.79 991 4820 (1950) 234 (1963) 1240 363 435 512 547 892 1160 1620 3570 4060
2021-02-24 23:30 3.81 1000 4820 (1950) 237 (1963) 1210 344 408 499 531 925 1230 1370 3430 4060
2021-02-24 22:30 3.80 996 4820 (1950) 237 (1963) 1210 344 408 499 531 925 1230 1370 3430 4060
2021-02-24 21:30 3.80 996 4820 (1950) 237 (1963) 1210 344 408 499 531 925 1230 1370 3430 4060
2021-02-24 20:30 3.80 996 4820 (1950) 237 (1963) 1210 344 408 499 531 925 1230 1370 3430 4060
2021-02-24 19:30 3.79 991 4820 (1950) 237 (1963) 1210 344 408 499 531 925 1230 1370 3430 4060
2021-02-24 18:30 3.78 985 4820 (1950) 237 (1963) 1210 344 408 499 531 925 1230 1370 3430 4060
2021-02-24 17:30 3.77 980 4820 (1950) 237 (1963) 1210 344 408 499 531 925 1230 1370 3430 4060
2021-02-24 16:30 3.78 985 4820 (1950) 237 (1963) 1210 344 408 499 531 925 1230 1370 3430 4060
2021-02-24 15:30 3.76 974 4820 (1950) 237 (1963) 1210 344 408 499 531 925 1230 1370 3430 4060
2021-02-24 14:30 3.78 985 4820 (1950) 237 (1963) 1210 344 408 499 531 925 1230 1370 3430 4060
2021-02-24 13:30 3.76 974 4820 (1950) 237 (1963) 1210 344 408 499 531 925 1230 1370 3430 4060
2021-02-24 12:30 3.75 968 4820 (1950) 237 (1963) 1210 344 408 499 531 925 1230 1370 3430 4060
2021-02-24 11:30 3.73 957 4820 (1950) 237 (1963) 1210 344 408 499 531 925 1230 1370 3430 4060
2021-02-24 10:30 3.71 946 4820 (1950) 237 (1963) 1210 344 408 499 531 925 1230 1370 3430 4060
2021-02-24 09:30 3.71 946 4820 (1950) 237 (1963) 1210 344 408 499 531 925 1230 1370 3430 4060
2021-02-24 08:30 3.72 952 4820 (1950) 237 (1963) 1210 344 408 499 531 925 1230 1370 3430 4060
2021-02-24 07:30 3.72 952 4820 (1950) 237 (1963) 1210 344 408 499 531 925 1230 1370 3430 4060
2021-02-24 06:30 3.71 946 4820 (1950) 237 (1963) 1210 344 408 499 531 925 1230 1370 3430 4060
2021-02-24 05:30 3.72 952 4820 (1950) 237 (1963) 1210 344 408 499 531 925 1230 1370 3430 4060
2021-02-24 04:30 3.71 946 4820 (1950) 237 (1963) 1210 344 408 499 531 925 1230 1370 3430 4060
2021-02-24 03:30 3.70 941 4820 (1950) 237 (1963) 1210 344 408 499 531 925 1230 1370 3430 4060
2021-02-24 02:30 3.71 946 4820 (1950) 237 (1963) 1210 344 408 499 531 925 1230 1370 3430 4060
2021-02-24 01:30 3.70 941 4820 (1950) 237 (1963) 1210 344 408 499 531 925 1230 1370 3430 4060
2021-02-24 00:30 3.67 924 4820 (1950) 237 (1963) 1210 344 408 499 531 925 1230 1370 3430 4060
2021-02-23 23:30 3.65 913 4640 (1950) 227 (1972) 1220 342 410 512 532 873 1400 1550 3070 4020
2021-02-23 22:30 3.64 908 4640 (1950) 227 (1972) 1220 342 410 512 532 873 1400 1550 3070 4020
2021-02-23 21:30 3.63 902 4640 (1950) 227 (1972) 1220 342 410 512 532 873 1400 1550 3070 4020
2021-02-23 20:30 3.61 892 4640 (1950) 227 (1972) 1220 342 410 512 532 873 1400 1550 3070 4020
2021-02-23 19:30 3.59 881 4640 (1950) 227 (1972) 1220 342 410 512 532 873 1400 1550 3070 4020
2021-02-23 18:30 3.57 870 4640 (1950) 227 (1972) 1220 342 410 512 532 873 1400 1550 3070 4020
2021-02-23 17:30 3.53 849 4640 (1950) 227 (1972) 1220 342 410 512 532 873 1400 1550 3070 4020
2021-02-23 16:30 3.52 844 4640 (1950) 227 (1972) 1220 342 410 512 532 873 1400 1550 3070 4020
2021-02-23 15:30 3.48 822 4640 (1950) 227 (1972) 1220 342 410 512 532 873 1400 1550 3070 4020
2021-02-23 14:30 3.44 802 4640 (1950) 227 (1972) 1220 342 410 512 532 873 1400 1550 3070 4020
2021-02-23 13:30 3.41 786 4640 (1950) 227 (1972) 1220 342 410 512 532 873 1400 1550 3070 4020
2021-02-23 12:30 3.36 761 4640 (1950) 227 (1972) 1220 342 410 512 532 873 1400 1550 3070 4020
2021-02-23 11:30 3.27 716 4640 (1950) 227 (1972) 1220 342 410 512 532 873 1400 1550 3070 4020
2021-02-23 10:30 3.23 696 4640 (1950) 227 (1972) 1220 342 410 512 532 873 1400 1550 3070 4020
2021-02-23 09:30 3.22 691 4640 (1950) 227 (1972) 1220 342 410 512 532 873 1400 1550 3070 4020
2021-02-23 08:30 3.24 701 4640 (1950) 227 (1972) 1220 342 410 512 532 873 1400 1550 3070 4020
2021-02-23 07:30 3.25 706 4640 (1950) 227 (1972) 1220 342 410 512 532 873 1400 1550 3070 4020
2021-02-23 06:30 3.25 706 4640 (1950) 227 (1972) 1220 342 410 512 532 873 1400 1550 3070 4020
2021-02-23 05:30 3.25 706 4640 (1950) 227 (1972) 1220 342 410 512 532 873 1400 1550 3070 4020
2021-02-23 04:30 3.26 711 4640 (1950) 227 (1972) 1220 342 410 512 532 873 1400 1550 3070 4020
2021-02-23 03:30 3.26 711 4640 (1950) 227 (1972) 1220 342 410 512 532 873 1400 1550 3070 4020
2021-02-23 02:30 3.25 706 4640 (1950) 227 (1972) 1220 342 410 512 532 873 1400 1550 3070 4020
2021-02-23 01:30 3.27 716 4640 (1950) 227 (1972) 1220 342 410 512 532 873 1400 1550 3070 4020
2021-02-23 00:30 3.28 721 4640 (1950) 227 (1972) 1220 342 410 512 532 873 1400 1550 3070 4020
2021-02-22 23:30 3.28 721 4640 (1950) 226 (1972) 1290 298 424 476 539 833 1830 2260 3270 4050
2021-02-22 22:30 3.29 725 4640 (1950) 226 (1972) 1290 298 424 476 539 833 1830 2260 3270 4050
2021-02-22 21:30 3.30 730 4640 (1950) 226 (1972) 1290 298 424 476 539 833 1830 2260 3270 4050
2021-02-22 20:30 3.30 730 4640 (1950) 226 (1972) 1290 298 424 476 539 833 1830 2260 3270 4050
2021-02-22 19:30 3.26 711 4640 (1950) 226 (1972) 1290 298 424 476 539 833 1830 2260 3270 4050
2021-02-22 18:30 3.24 701 4640 (1950) 226 (1972) 1290 298 424 476 539 833 1830 2260 3270 4050
2021-02-22 17:30 3.23 696 4640 (1950) 226 (1972) 1290 298 424 476 539 833 1830 2260 3270 4050
2021-02-22 16:30 3.24 701 4640 (1950) 226 (1972) 1290 298 424 476 539 833 1830 2260 3270 4050
2021-02-22 15:30 3.24 701 4640 (1950) 226 (1972) 1290 298 424 476 539 833 1830 2260 3270 4050
2021-02-22 14:30 3.28 721 4640 (1950) 226 (1972) 1290 298 424 476 539 833 1830 2260 3270 4050
2021-02-22 13:30 3.30 730 4640 (1950) 226 (1972) 1290 298 424 476 539 833 1830 2260 3270 4050
2021-02-22 12:30 3.36 761 4640 (1950) 226 (1972) 1290 298 424 476 539 833 1830 2260 3270 4050
2021-02-22 11:30 3.40 781 4640 (1950) 226 (1972) 1290 298 424 476 539 833 1830 2260 3270 4050
2021-02-22 10:30 3.44 802 4640 (1950) 226 (1972) 1290 298 424 476 539 833 1830 2260 3270 4050
2021-02-22 09:30 3.47 817 4640 (1950) 226 (1972) 1290 298 424 476 539 833 1830 2260 3270 4050
2021-02-22 08:30 3.48 822 4640 (1950) 226 (1972) 1290 298 424 476 539 833 1830 2260 3270 4050
2021-02-22 07:30 3.48 822 4640 (1950) 226 (1972) 1290 298 424 476 539 833 1830 2260 3270 4050
2021-02-22 06:30 3.48 822 4640 (1950) 226 (1972) 1290 298 424 476 539 833 1830 2260 3270 4050
2021-02-22 05:30 3.49 828 4640 (1950) 226 (1972) 1290 298 424 476 539 833 1830 2260 3270 4050
2021-02-22 04:30 3.49 828 4640 (1950) 226 (1972) 1290 298 424 476 539 833 1830 2260 3270 4050
2021-02-22 03:30 3.46 812 4640 (1950) 226 (1972) 1290 298 424 476 539 833 1830 2260 3270 4050
2021-02-22 02:30 3.47 817 4640 (1950) 226 (1972) 1290 298 424 476 539 833 1830 2260 3270 4050
2021-02-22 01:30 3.48 822 4640 (1950) 226 (1972) 1290 298 424 476 539 833 1830 2260 3270 4050
2021-02-22 00:30 3.47 817 4640 (1950) 226 (1972) 1290 298 424 476 539 833 1830 2260 3270 4050
2021-02-21 23:30 3.48 822 4640 (1950) 230 (1972) 1280 300 404 479 511 853 1590 1990 3280 3940
2021-02-21 22:30 3.47 817 4640 (1950) 230 (1972) 1280 300 404 479 511 853 1590 1990 3280 3940
2021-02-21 21:30 3.48 822 4640 (1950) 230 (1972) 1280 300 404 479 511 853 1590 1990 3280 3940
2021-02-21 20:30 3.48 822 4640 (1950) 230 (1972) 1280 300 404 479 511 853 1590 1990 3280 3940
2021-02-21 19:30 3.46 812 4640 (1950) 230 (1972) 1280 300 404 479 511 853 1590 1990 3280 3940
2021-02-21 18:30 3.47 817 4640 (1950) 230 (1972) 1280 300 404 479 511 853 1590 1990 3280 3940
2021-02-21 17:30 3.47 817 4640 (1950) 230 (1972) 1280 300 404 479 511 853 1590 1990 3280 3940
2021-02-21 16:30 3.46 812 4640 (1950) 230 (1972) 1280 300 404 479 511 853 1590 1990 3280 3940
2021-02-21 15:30 3.46 812 4640 (1950) 230 (1972) 1280 300 404 479 511 853 1590 1990 3280 3940
2021-02-21 14:30 3.46 812 4640 (1950) 230 (1972) 1280 300 404 479 511 853 1590 1990 3280 3940
2021-02-21 13:30 3.46 812 4640 (1950) 230 (1972) 1280 300 404 479 511 853 1590 1990 3280 3940
2021-02-21 12:30 3.47 817 4640 (1950) 230 (1972) 1280 300 404 479 511 853 1590 1990 3280 3940
2021-02-21 11:30 3.47 817 4640 (1950) 230 (1972) 1280 300 404 479 511 853 1590 1990 3280 3940
2021-02-21 10:30 3.46 812 4640 (1950) 230 (1972) 1280 300 404 479 511 853 1590 1990 3280 3940
2021-02-21 09:30 3.48 822 4640 (1950) 230 (1972) 1280 300 404 479 511 853 1590 1990 3280 3940
2021-02-21 08:30 3.48 822 4640 (1950) 230 (1972) 1280 300 404 479 511 853 1590 1990 3280 3940
2021-02-21 07:30 3.48 822 4640 (1950) 230 (1972) 1280 300 404 479 511 853 1590 1990 3280 3940
2021-02-21 06:30 3.48 822 4640 (1950) 230 (1972) 1280 300 404 479 511 853 1590 1990 3280 3940
2021-02-21 05:30 3.49 828 4640 (1950) 230 (1972) 1280 300 404 479 511 853 1590 1990 3280 3940
2021-02-21 04:30 3.48 822 4640 (1950) 230 (1972) 1280 300 404 479 511 853 1590 1990 3280 3940
2021-02-21 03:30 3.49 828 4640 (1950) 230 (1972) 1280 300 404 479 511 853 1590 1990 3280 3940
2021-02-21 02:30 3.50 833 4640 (1950) 230 (1972) 1280 300 404 479 511 853 1590 1990 3280 3940
2021-02-21 01:30 3.48 822 4640 (1950) 230 (1972) 1280 300 404 479 511 853 1590 1990 3280 3940
2021-02-21 00:30 3.49 828 4640 (1950) 230 (1972) 1280 300 404 479 511 853 1590 1990 3280 3940
2021-02-20 23:30 3.49 828 4350 (1949) 228 (1972) 1340 307 404 485 503 797 1950 2500 3450 3840
2021-02-20 22:30 3.49 828 4350 (1949) 228 (1972) 1340 307 404 485 503 797 1950 2500 3450 3840
2021-02-20 21:30 3.49 828 4350 (1949) 228 (1972) 1340 307 404 485 503 797 1950 2500 3450 3840
2021-02-20 20:30 3.49 828 4350 (1949) 228 (1972) 1340 307 404 485 503 797 1950 2500 3450 3840
2021-02-20 19:30 3.48 822 4350 (1949) 228 (1972) 1340 307 404 485 503 797 1950 2500 3450 3840
2021-02-20 18:30 3.48 822 4350 (1949) 228 (1972) 1340 307 404 485 503 797 1950 2500 3450 3840
2021-02-20 17:30 3.46 812 4350 (1949) 228 (1972) 1340 307 404 485 503 797 1950 2500 3450 3840
2021-02-20 16:30 3.46 812 4350 (1949) 228 (1972) 1340 307 404 485 503 797 1950 2500 3450 3840
2021-02-20 15:30 3.46 812 4350 (1949) 228 (1972) 1340 307 404 485 503 797 1950 2500 3450 3840
2021-02-20 14:30 3.46 812 4350 (1949) 228 (1972) 1340 307 404 485 503 797 1950 2500 3450 3840
2021-02-20 13:30 3.47 817 4350 (1949) 228 (1972) 1340 307 404 485 503 797 1950 2500 3450 3840
2021-02-20 12:30 3.45 807 4350 (1949) 228 (1972) 1340 307 404 485 503 797 1950 2500 3450 3840
2021-02-20 11:30 3.46 812 4350 (1949) 228 (1972) 1340 307 404 485 503 797 1950 2500 3450 3840
2021-02-20 10:30 3.47 817 4350 (1949) 228 (1972) 1340 307 404 485 503 797 1950 2500 3450 3840
2021-02-20 09:30 3.47 817 4350 (1949) 228 (1972) 1340 307 404 485 503 797 1950 2500 3450 3840
2021-02-20 08:30 3.49 828 4350 (1949) 228 (1972) 1340 307 404 485 503 797 1950 2500 3450 3840
2021-02-20 07:30 3.49 828 4350 (1949) 228 (1972) 1340 307 404 485 503 797 1950 2500 3450 3840
2021-02-20 06:30 3.49 828 4350 (1949) 228 (1972) 1340 307 404 485 503 797 1950 2500 3450 3840
2021-02-20 05:30 3.48 822 4350 (1949) 228 (1972) 1340 307 404 485 503 797 1950 2500 3450 3840
2021-02-20 04:30 3.49 828 4350 (1949) 228 (1972) 1340 307 404 485 503 797 1950 2500 3450 3840
2021-02-20 03:30 3.50 833 4350 (1949) 228 (1972) 1340 307 404 485 503 797 1950 2500 3450 3840
2021-02-20 02:30 3.50 833 4350 (1949) 228 (1972) 1340 307 404 485 503 797 1950 2500 3450 3840
2021-02-20 01:30 3.49 828 4350 (1949) 228 (1972) 1340 307 404 485 503 797 1950 2500 3450 3840
2021-02-20 00:30 3.49 828 4350 (1949) 228 (1972) 1340 307 404 485 503 797 1950 2500 3450 3840

A total of 184 rows are displayed for years 1949 through 2020.